sensor_id;sensor_type;location;lat;lon;timestamp;pressure;altitude;pressure_sealevel;temperature;humidity
74798;BME280;63326;45.088;7.658;2024-01-11T00:01:39;99689.31;;;-0.17;100.00
74798;BME280;63326;45.088;7.658;2024-01-11T00:04:10;99783.44;;;0.40;100.00
74798;BME280;63326;45.088;7.658;2024-01-11T00:06:42;99796.81;;;0.51;100.00
74798;BME280;63326;45.088;7.658;2024-01-11T00:09:09;99749.72;;;0.17;100.00
74798;BME280;63326;45.088;7.658;2024-01-11T00:11:36;99757.81;;;0.28;100.00
74798;BME280;63326;45.088;7.658;2024-01-11T00:14:03;99740.47;;;0.24;100.00
74798;BME280;63326;45.088;7.658;2024-01-11T00:16:30;99716.78;;;0.08;100.00
74798;BME280;63326;45.088;7.658;2024-01-11T00:18:57;99721.50;;;0.17;100.00
74798;BME280;63326;45.088;7.658;2024-01-11T00:21:24;99686.47;;;-0.14;100.00
74798;BME280;63326;45.088;7.658;2024-01-11T00:23:51;99745.13;;;0.33;100.00
74798;BME280;63326;45.088;7.658;2024-01-11T00:26:18;99747.88;;;0.31;100.00
74798;BME280;63326;45.088;7.658;2024-01-11T00:28:45;99698.03;;;0.12;100.00
74798;BME280;63326;45.088;7.658;2024-01-11T00:31:12;99686.06;;;0.07;100.00
74798;BME280;63326;45.088;7.658;2024-01-11T00:33:39;99731.44;;;0.40;100.00
74798;BME280;63326;45.088;7.658;2024-01-11T00:36:06;99725.13;;;0.43;100.00
74798;BME280;63326;45.088;7.658;2024-01-11T00:38:32;99740.69;;;0.48;100.00
74798;BME280;63326;45.088;7.658;2024-01-11T00:40:59;99692.22;;;0.34;100.00
74798;BME280;63326;45.088;7.658;2024-01-11T00:43:26;99688.16;;;0.29;100.00
74798;BME280;63326;45.088;7.658;2024-01-11T00:45:53;99708.50;;;0.41;100.00
74798;BME280;63326;45.088;7.658;2024-01-11T00:48:20;99698.25;;;0.36;100.00
74798;BME280;63326;45.088;7.658;2024-01-11T00:50:47;99733.03;;;0.43;100.00
74798;BME280;63326;45.088;7.658;2024-01-11T00:53:13;99670.25;;;0.20;100.00
74798;BME280;63326;45.088;7.658;2024-01-11T00:55:41;99728.00;;;0.53;100.00
74798;BME280;63326;45.088;7.658;2024-01-11T00:58:08;99655.09;;;0.09;100.00
74798;BME280;63326;45.088;7.658;2024-01-11T01:00:35;99735.88;;;0.54;100.00
74798;BME280;63326;45.088;7.658;2024-01-11T01:03:01;99683.25;;;0.37;99.72
74798;BME280;63326;45.088;7.658;2024-01-11T01:05:28;99679.03;;;0.34;99.79
74798;BME280;63326;45.088;7.658;2024-01-11T01:07:55;99682.28;;;0.38;99.43
74798;BME280;63326;45.088;7.658;2024-01-11T01:10:22;99711.06;;;0.42;99.51
74798;BME280;63326;45.088;7.658;2024-01-11T01:12:50;99773.72;;;0.82;99.30
74798;BME280;63326;45.088;7.658;2024-01-11T01:15:17;99707.28;;;0.47;98.55
74798;BME280;63326;45.088;7.658;2024-01-11T01:17:44;99759.22;;;0.75;98.95
74798;BME280;63326;45.088;7.658;2024-01-11T01:20:11;99778.91;;;0.83;97.95
74798;BME280;63326;45.088;7.658;2024-01-11T01:22:38;99697.16;;;0.26;97.20
74798;BME280;63326;45.088;7.658;2024-01-11T01:25:05;99715.59;;;0.40;97.55
74798;BME280;63326;45.088;7.658;2024-01-11T01:27:32;99749.88;;;0.69;97.25
74798;BME280;63326;45.088;7.658;2024-01-11T01:29:58;99771.91;;;0.82;98.10
74798;BME280;63326;45.088;7.658;2024-01-11T01:32:25;99698.16;;;0.38;98.28
74798;BME280;63326;45.088;7.658;2024-01-11T01:34:52;99676.75;;;0.28;97.67
74798;BME280;63326;45.088;7.658;2024-01-11T01:37:19;99686.63;;;0.39;98.21
74798;BME280;63326;45.088;7.658;2024-01-11T01:39:45;99699.56;;;0.43;98.90
74798;BME280;63326;45.088;7.658;2024-01-11T01:42:12;99775.56;;;0.94;99.24
74798;BME280;63326;45.088;7.658;2024-01-11T01:44:39;99669.47;;;0.32;99.35
74798;BME280;63326;45.088;7.658;2024-01-11T01:47:08;99773.56;;;0.97;99.24
74798;BME280;63326;45.088;7.658;2024-01-11T01:49:37;99708.38;;;0.57;99.23
74798;BME280;63326;45.088;7.658;2024-01-11T01:52:06;99694.06;;;0.47;99.86
74798;BME280;63326;45.088;7.658;2024-01-11T01:54:34;99715.84;;;0.50;99.48
74798;BME280;63326;45.088;7.658;2024-01-11T01:57:01;99737.16;;;0.61;99.45
74798;BME280;63326;45.088;7.658;2024-01-11T01:59:29;99785.22;;;0.95;99.38
74798;BME280;63326;45.088;7.658;2024-01-11T02:01:58;99731.13;;;0.59;100.00
74798;BME280;63326;45.088;7.658;2024-01-11T02:04:25;99775.22;;;0.86;99.99
74798;BME280;63326;45.088;7.658;2024-01-11T02:06:53;99707.72;;;0.53;100.00
74798;BME280;63326;45.088;7.658;2024-01-11T02:09:22;99791.16;;;0.98;100.00
74798;BME280;63326;45.088;7.658;2024-01-11T02:11:51;99711.03;;;0.57;100.00
74798;BME280;63326;45.088;7.658;2024-01-11T02:14:18;99716.84;;;0.62;100.00
74798;BME280;63326;45.088;7.658;2024-01-11T02:16:45;99730.22;;;0.73;100.00
74798;BME280;63326;45.088;7.658;2024-01-11T02:19:13;99748.56;;;0.89;100.00
74798;BME280;63326;45.088;7.658;2024-01-11T02:21:43;99692.75;;;0.54;100.00
74798;BME280;63326;45.088;7.658;2024-01-11T02:24:13;99730.31;;;0.71;100.00
74798;BME280;63326;45.088;7.658;2024-01-11T02:26:59;99755.78;;;0.87;99.93
74798;BME280;63326;45.088;7.658;2024-01-11T02:29:27;99763.03;;;0.83;96.92
74798;BME280;63326;45.088;7.658;2024-01-11T02:31:57;99796.69;;;1.08;96.58
74798;BME280;63326;45.088;7.658;2024-01-11T02:34:27;99722.50;;;0.70;99.07
74798;BME280;63326;45.088;7.658;2024-01-11T02:36:55;99729.28;;;0.74;99.70
74798;BME280;63326;45.088;7.658;2024-01-11T02:39:23;99731.63;;;0.79;100.00
74798;BME280;63326;45.088;7.658;2024-01-11T02:41:54;99773.50;;;1.12;100.00
74798;BME280;63326;45.088;7.658;2024-01-11T02:44:21;99798.16;;;1.12;99.64
74798;BME280;63326;45.088;7.658;2024-01-11T02:46:47;99690.84;;;0.56;99.07
74798;BME280;63326;45.088;7.658;2024-01-11T02:49:17;99717.84;;;0.73;99.22
74798;BME280;63326;45.088;7.658;2024-01-11T02:51:44;99694.13;;;0.59;98.32
74798;BME280;63326;45.088;7.658;2024-01-11T02:54:11;99653.13;;;0.39;99.21
74798;BME280;63326;45.088;7.658;2024-01-11T02:56:38;99676.41;;;0.47;99.15
74798;BME280;63326;45.088;7.658;2024-01-11T02:59:05;99692.78;;;0.66;99.33
74798;BME280;63326;45.088;7.658;2024-01-11T03:01:31;99617.78;;;0.28;97.01
74798;BME280;63326;45.088;7.658;2024-01-11T03:03:59;99753.94;;;1.14;95.69
74798;BME280;63326;45.088;7.658;2024-01-11T03:06:26;99756.69;;;1.13;95.44
74798;BME280;63326;45.088;7.658;2024-01-11T03:08:53;99652.44;;;0.50;95.45
74798;BME280;63326;45.088;7.658;2024-01-11T03:11:20;99668.13;;;0.66;95.79
74798;BME280;63326;45.088;7.658;2024-01-11T03:13:46;99666.88;;;0.71;94.46
74798;BME280;63326;45.088;7.658;2024-01-11T03:16:13;99656.13;;;0.75;93.34
74798;BME280;63326;45.088;7.658;2024-01-11T03:18:40;99658.13;;;0.84;90.68
74798;BME280;63326;45.088;7.658;2024-01-11T03:21:07;99646.38;;;0.75;90.69
74798;BME280;63326;45.088;7.658;2024-01-11T03:23:36;99688.50;;;1.03;90.90
74798;BME280;63326;45.088;7.658;2024-01-11T03:26:03;99655.56;;;0.82;90.67
74798;BME280;63326;45.088;7.658;2024-01-11T03:28:29;99693.72;;;1.05;90.53
74798;BME280;63326;45.088;7.658;2024-01-11T03:30:58;99730.41;;;1.37;88.41
74798;BME280;63326;45.088;7.658;2024-01-11T03:33:24;99613.88;;;0.73;88.16
74798;BME280;63326;45.088;7.658;2024-01-11T03:35:51;99650.97;;;0.98;86.14
74798;BME280;63326;45.088;7.658;2024-01-11T03:38:18;99699.38;;;1.26;86.59
74798;BME280;63326;45.088;7.658;2024-01-11T03:40:45;99667.19;;;1.07;86.73
74798;BME280;63326;45.088;7.658;2024-01-11T03:43:12;99604.59;;;0.67;87.89
74798;BME280;63326;45.088;7.658;2024-01-11T03:45:39;99681.03;;;1.10;88.95
74798;BME280;63326;45.088;7.658;2024-01-11T03:48:06;99640.16;;;0.89;89.66
74798;BME280;63326;45.088;7.658;2024-01-11T03:50:33;99727.72;;;1.24;89.43
74798;BME280;63326;45.088;7.658;2024-01-11T03:52:59;99676.47;;;0.99;90.50
74798;BME280;63326;45.088;7.658;2024-01-11T03:55:26;99673.28;;;0.94;91.28
74798;BME280;63326;45.088;7.658;2024-01-11T03:57:53;99646.38;;;0.75;87.63
74798;BME280;63326;45.088;7.658;2024-01-11T04:00:20;99698.69;;;1.10;89.58
74798;BME280;63326;45.088;7.658;2024-01-11T04:02:47;99652.16;;;0.67;91.72
74798;BME280;63326;45.088;7.658;2024-01-11T04:05:14;99663.72;;;0.79;91.95
74798;BME280;63326;45.088;7.658;2024-01-11T04:07:42;99667.19;;;0.67;92.82
74798;BME280;63326;45.088;7.658;2024-01-11T04:10:09;99617.31;;;0.35;94.39
74798;BME280;63326;45.088;7.658;2024-01-11T04:12:38;99633.03;;;0.37;95.93
74798;BME280;63326;45.088;7.658;2024-01-11T04:15:05;99604.66;;;0.13;96.93
74798;BME280;63326;45.088;7.658;2024-01-11T04:17:32;99647.06;;;0.25;98.29
74798;BME280;63326;45.088;7.658;2024-01-11T04:19:59;99701.50;;;0.54;99.83
74798;BME280;63326;45.088;7.658;2024-01-11T04:22:28;99650.19;;;0.17;100.00
74798;BME280;63326;45.088;7.658;2024-01-11T04:24:54;99625.25;;;-0.06;100.00
74798;BME280;63326;45.088;7.658;2024-01-11T04:27:21;99676.91;;;0.12;100.00
74798;BME280;63326;45.088;7.658;2024-01-11T04:29:48;99626.50;;;-0.26;100.00
74798;BME280;63326;45.088;7.658;2024-01-11T04:32:15;99605.34;;;-0.38;100.00
74798;BME280;63326;45.088;7.658;2024-01-11T04:34:42;99609.56;;;-0.36;100.00
74798;BME280;63326;45.088;7.658;2024-01-11T04:37:08;99662.06;;;-0.17;100.00
74798;BME280;63326;45.088;7.658;2024-01-11T04:39:35;99637.06;;;-0.26;100.00
74798;BME280;63326;45.088;7.658;2024-01-11T04:42:02;99567.94;;;-0.74;100.00
74798;BME280;63326;45.088;7.658;2024-01-11T04:44:29;99640.38;;;-0.36;100.00
74798;BME280;63326;45.088;7.658;2024-01-11T04:46:56;99582.44;;;-0.81;100.00
74798;BME280;63326;45.088;7.658;2024-01-11T04:49:23;99600.25;;;-0.84;100.00
74798;BME280;63326;45.088;7.658;2024-01-11T04:51:50;99686.47;;;-0.42;100.00
74798;BME280;63326;45.088;7.658;2024-01-11T04:54:17;99606.72;;;-0.90;100.00
74798;BME280;63326;45.088;7.658;2024-01-11T04:56:43;99572.34;;;-1.17;100.00
74798;BME280;63326;45.088;7.658;2024-01-11T04:59:11;99636.88;;;-0.94;100.00
74798;BME280;63326;45.088;7.658;2024-01-11T05:01:38;99614.53;;;-1.03;100.00
74798;BME280;63326;45.088;7.658;2024-01-11T05:04:06;99621.19;;;-1.11;100.00
74798;BME280;63326;45.088;7.658;2024-01-11T05:06:33;99654.78;;;-0.99;100.00
74798;BME280;63326;45.088;7.658;2024-01-11T05:08:59;99594.97;;;-1.43;100.00
74798;BME280;63326;45.088;7.658;2024-01-11T05:11:26;99577.63;;;-1.61;100.00
74798;BME280;63326;45.088;7.658;2024-01-11T05:13:53;99597.75;;;-1.60;100.00
74798;BME280;63326;45.088;7.658;2024-01-11T05:18:47;99666.09;;;-1.13;100.00
74798;BME280;63326;45.088;7.658;2024-01-11T05:21:15;99588.06;;;-1.60;100.00
74798;BME280;63326;45.088;7.658;2024-01-11T05:23:41;99576.59;;;-1.59;100.00
74798;BME280;63326;45.088;7.658;2024-01-11T05:26:09;99662.38;;;-0.94;100.00
74798;BME280;63326;45.088;7.658;2024-01-11T05:28:36;99596.22;;;-1.34;100.00
74798;BME280;63326;45.088;7.658;2024-01-11T05:31:10;99663.81;;;-0.89;100.00
74798;BME280;63326;45.088;7.658;2024-01-11T05:33:38;99621.31;;;-1.13;100.00
74798;BME280;63326;45.088;7.658;2024-01-11T05:36:06;99663.72;;;-0.87;100.00
74798;BME280;63326;45.088;7.658;2024-01-11T05:38:33;99560.69;;;-1.57;100.00
74798;BME280;63326;45.088;7.658;2024-01-11T05:41:00;99661.16;;;-1.03;100.00
74798;BME280;63326;45.088;7.658;2024-01-11T05:43:27;99608.94;;;-1.41;100.00
74798;BME280;63326;45.088;7.658;2024-01-11T05:45:54;99605.97;;;-1.50;100.00
74798;BME280;63326;45.088;7.658;2024-01-11T05:48:21;99593.88;;;-1.69;100.00
74798;BME280;63326;45.088;7.658;2024-01-11T05:50:47;99613.63;;;-1.62;100.00
74798;BME280;63326;45.088;7.658;2024-01-11T05:53:14;99559.63;;;-1.99;100.00
74798;BME280;63326;45.088;7.658;2024-01-11T05:55:41;99599.47;;;-1.75;100.00
74798;BME280;63326;45.088;7.658;2024-01-11T05:58:08;99589.00;;;-1.91;100.00
74798;BME280;63326;45.088;7.658;2024-01-11T06:00:35;99551.56;;;-2.11;100.00
74798;BME280;63326;45.088;7.658;2024-01-11T06:03:02;99592.50;;;-1.60;100.00
74798;BME280;63326;45.088;7.658;2024-01-11T06:05:29;99620.66;;;-1.46;100.00
74798;BME280;63326;45.088;7.658;2024-01-11T06:07:56;99608.53;;;-1.49;100.00
74798;BME280;63326;45.088;7.658;2024-01-11T06:10:23;99598.31;;;-1.55;100.00
74798;BME280;63326;45.088;7.658;2024-01-11T06:12:49;99570.03;;;-1.81;100.00
74798;BME280;63326;45.088;7.658;2024-01-11T06:15:16;99591.47;;;-1.73;100.00
74798;BME280;63326;45.088;7.658;2024-01-11T06:17:43;99593.97;;;-1.86;100.00
74798;BME280;63326;45.088;7.658;2024-01-11T06:20:10;99592.81;;;-1.96;100.00
74798;BME280;63326;45.088;7.658;2024-01-11T06:22:38;99525.69;;;-2.35;100.00
74798;BME280;63326;45.088;7.658;2024-01-11T06:25:07;99592.38;;;-2.04;100.00
74798;BME280;63326;45.088;7.658;2024-01-11T06:27:34;99568.81;;;-2.37;100.00
74798;BME280;63326;45.088;7.658;2024-01-11T06:30:01;99567.19;;;-2.40;100.00
74798;BME280;63326;45.088;7.658;2024-01-11T06:32:29;99672.09;;;-1.87;100.00
74798;BME280;63326;45.088;7.658;2024-01-11T06:34:57;99618.72;;;-2.20;100.00
74798;BME280;63326;45.088;7.658;2024-01-11T06:37:24;99519.34;;;-2.78;100.00
74798;BME280;63326;45.088;7.658;2024-01-11T06:39:51;99527.41;;;-2.81;100.00
74798;BME280;63326;45.088;7.658;2024-01-11T06:42:20;99508.38;;;-2.86;100.00
74798;BME280;63326;45.088;7.658;2024-01-11T06:44:47;99605.97;;;-2.28;100.00
74798;BME280;63326;45.088;7.658;2024-01-11T06:47:14;99595.63;;;-2.31;100.00
74798;BME280;63326;45.088;7.658;2024-01-11T06:49:41;99601.84;;;-2.32;100.00
74798;BME280;63326;45.088;7.658;2024-01-11T06:52:08;99570.84;;;-2.42;100.00
74798;BME280;63326;45.088;7.658;2024-01-11T06:54:34;99595.53;;;-2.29;100.00
74798;BME280;63326;45.088;7.658;2024-01-11T06:57:01;99569.06;;;-2.42;100.00
74798;BME280;63326;45.088;7.658;2024-01-11T06:59:28;99552.44;;;-2.42;100.00
74798;BME280;63326;45.088;7.658;2024-01-11T07:01:55;99623.72;;;-2.00;100.00
74798;BME280;63326;45.088;7.658;2024-01-11T07:04:21;99609.72;;;-2.00;100.00
74798;BME280;63326;45.088;7.658;2024-01-11T07:06:48;99609.44;;;-1.96;100.00
74798;BME280;63326;45.088;7.658;2024-01-11T07:09:15;99574.41;;;-2.12;100.00
74798;BME280;63326;45.088;7.658;2024-01-11T07:11:43;99541.56;;;-2.21;100.00
74798;BME280;63326;45.088;7.658;2024-01-11T07:14:10;99583.31;;;-1.99;100.00
74798;BME280;63326;45.088;7.658;2024-01-11T07:16:37;99623.88;;;-1.71;100.00
74798;BME280;63326;45.088;7.658;2024-01-11T07:19:04;99595.75;;;-1.87;100.00
74798;BME280;63326;45.088;7.658;2024-01-11T07:21:31;99603.03;;;-1.76;100.00
74798;BME280;63326;45.088;7.658;2024-01-11T07:23:59;99487.44;;;-2.40;100.00
74798;BME280;63326;45.088;7.658;2024-01-11T07:26:26;99611.31;;;-1.52;100.00
74798;BME280;63326;45.088;7.658;2024-01-11T07:28:53;99659.72;;;-1.09;100.00
74798;BME280;63326;45.088;7.658;2024-01-11T07:31:24;99618.91;;;-1.32;100.00
74798;BME280;63326;45.088;7.658;2024-01-11T07:33:50;99622.34;;;-1.01;100.00
74798;BME280;63326;45.088;7.658;2024-01-11T07:36:17;99629.75;;;-0.63;100.00
74798;BME280;63326;45.088;7.658;2024-01-11T07:38:44;99626.50;;;-0.26;100.00
74798;BME280;63326;45.088;7.658;2024-01-11T07:41:11;99621.34;;;-0.00;100.00
74798;BME280;63326;45.088;7.658;2024-01-11T07:43:39;99623.06;;;0.28;100.00
74798;BME280;63326;45.088;7.658;2024-01-11T07:46:19;99612.75;;;0.77;100.00
74798;BME280;63326;45.088;7.658;2024-01-11T07:48:58;99584.00;;;1.11;100.00
74798;BME280;63326;45.088;7.658;2024-01-11T07:51:26;99670.50;;;2.10;100.00
74798;BME280;63326;45.088;7.658;2024-01-11T07:53:53;99574.75;;;2.15;100.00
74798;BME280;63326;45.088;7.658;2024-01-11T07:56:20;99579.75;;;2.90;100.00
74798;BME280;63326;45.088;7.658;2024-01-11T07:58:47;99616.38;;;3.65;100.00
74798;BME280;63326;45.088;7.658;2024-01-11T08:01:16;99596.88;;;4.09;98.97
74798;BME280;63326;45.088;7.658;2024-01-11T08:03:43;99569.66;;;4.48;87.75
74798;BME280;63326;45.088;7.658;2024-01-11T08:06:14;99590.78;;;4.93;82.71
74798;BME280;63326;45.088;7.658;2024-01-11T08:08:41;99627.66;;;5.80;76.83
74798;BME280;63326;45.088;7.658;2024-01-11T08:11:08;99591.81;;;6.03;74.09
74798;BME280;63326;45.088;7.658;2024-01-11T08:13:36;99651.72;;;7.17;68.08
74798;BME280;63326;45.088;7.658;2024-01-11T08:16:04;99586.59;;;7.27;64.63
74798;BME280;63326;45.088;7.658;2024-01-11T08:18:33;99598.88;;;7.67;62.70
74798;BME280;63326;45.088;7.658;2024-01-11T08:21:00;99591.09;;;7.83;60.56
74798;BME280;63326;45.088;7.658;2024-01-11T08:23:27;99593.91;;;8.27;59.14
74798;BME280;63326;45.088;7.658;2024-01-11T08:25:54;99593.16;;;8.70;56.54
74798;BME280;63326;45.088;7.658;2024-01-11T08:28:21;99615.34;;;9.34;52.98
74798;BME280;63326;45.088;7.658;2024-01-11T08:30:47;99574.47;;;9.66;49.91
74798;BME280;63326;45.088;7.658;2024-01-11T08:33:14;99640.03;;;10.56;48.53
74798;BME280;63326;45.088;7.658;2024-01-11T08:35:41;99604.09;;;10.49;47.62
74798;BME280;63326;45.088;7.658;2024-01-11T08:38:08;99603.59;;;10.62;47.99
74798;BME280;63326;45.088;7.658;2024-01-11T08:40:36;99579.13;;;11.05;45.39
74798;BME280;63326;45.088;7.658;2024-01-11T08:43:03;99597.59;;;11.33;45.62
74798;BME280;63326;45.088;7.658;2024-01-11T08:45:30;99590.88;;;11.37;45.49
74798;BME280;63326;45.088;7.658;2024-01-11T08:47:57;99570.72;;;10.76;46.46
74798;BME280;63326;45.088;7.658;2024-01-11T08:50:25;99624.59;;;11.56;45.91
74798;BME280;63326;45.088;7.658;2024-01-11T08:52:54;99577.44;;;11.04;46.72
74798;BME280;63326;45.088;7.658;2024-01-11T08:55:22;99591.84;;;11.36;46.84
74798;BME280;63326;45.088;7.658;2024-01-11T08:57:49;99607.53;;;11.00;47.61
74798;BME280;63326;45.088;7.658;2024-01-11T09:00:16;99568.03;;;10.60;47.77
74798;BME280;63326;45.088;7.658;2024-01-11T09:02:45;99605.28;;;10.46;48.57
74798;BME280;63326;45.088;7.658;2024-01-11T09:05:16;99573.88;;;10.47;48.51
74798;BME280;63326;45.088;7.658;2024-01-11T09:07:43;99650.72;;;11.06;47.94
74798;BME280;63326;45.088;7.658;2024-01-11T09:10:10;99658.44;;;11.18;48.24
74798;BME280;63326;45.088;7.658;2024-01-11T09:12:38;99650.19;;;10.95;48.56
74798;BME280;63326;45.088;7.658;2024-01-11T09:15:06;99612.06;;;10.91;47.93
74798;BME280;63326;45.088;7.658;2024-01-11T09:17:32;99577.44;;;10.56;47.66
74798;BME280;63326;45.088;7.658;2024-01-11T09:19:59;99567.28;;;9.75;49.11
74798;BME280;63326;45.088;7.658;2024-01-11T09:22:26;99624.59;;;10.58;48.52
74798;BME280;63326;45.088;7.658;2024-01-11T09:24:54;99641.66;;;11.07;48.83
74798;BME280;63326;45.088;7.658;2024-01-11T09:27:20;99620.47;;;11.37;46.26
74798;BME280;63326;45.088;7.658;2024-01-11T09:29:47;99630.84;;;12.12;45.66
74798;BME280;63326;45.088;7.658;2024-01-11T09:32:17;99592.94;;;11.74;46.53
74798;BME280;63326;45.088;7.658;2024-01-11T09:34:44;99571.31;;;11.67;44.75
74798;BME280;63326;45.088;7.658;2024-01-11T09:37:12;99622.00;;;12.65;43.11
74798;BME280;63326;45.088;7.658;2024-01-11T09:39:38;99597.25;;;12.39;43.91
74798;BME280;63326;45.088;7.658;2024-01-11T09:42:09;99639.22;;;12.56;43.77
74798;BME280;63326;45.088;7.658;2024-01-11T09:44:37;99655.38;;;12.87;43.65
74798;BME280;63326;45.088;7.658;2024-01-11T09:47:10;99646.34;;;12.80;42.84
74798;BME280;63326;45.088;7.658;2024-01-11T09:49:43;99578.97;;;10.99;46.13
74798;BME280;63326;45.088;7.658;2024-01-11T09:52:11;99632.91;;;11.93;44.43
74798;BME280;63326;45.088;7.658;2024-01-11T09:54:39;99583.41;;;12.19;43.14
74798;BME280;63326;45.088;7.658;2024-01-11T09:57:07;99601.34;;;11.79;44.43
74798;BME280;63326;45.088;7.658;2024-01-11T09:59:35;99559.72;;;11.59;44.89
74798;BME280;63326;45.088;7.658;2024-01-11T10:02:03;99576.75;;;12.61;41.93
74798;BME280;63326;45.088;7.658;2024-01-11T10:04:30;99626.63;;;13.02;42.04
74798;BME280;63326;45.088;7.658;2024-01-11T10:06:57;99568.22;;;12.72;42.18
74798;BME280;63326;45.088;7.658;2024-01-11T10:09:24;99613.63;;;12.29;41.83
74798;BME280;63326;45.088;7.658;2024-01-11T10:11:53;99579.56;;;12.36;42.11
74798;BME280;63326;45.088;7.658;2024-01-11T10:14:20;99628.34;;;13.18;40.51
74798;BME280;63326;45.088;7.658;2024-01-11T10:16:47;99565.22;;;12.13;42.41
74798;BME280;63326;45.088;7.658;2024-01-11T10:19:14;99610.75;;;11.83;43.81
74798;BME280;63326;45.088;7.658;2024-01-11T10:21:43;99603.69;;;11.82;43.67
74798;BME280;63326;45.088;7.658;2024-01-11T10:24:10;99577.13;;;11.07;45.56
74798;BME280;63326;45.088;7.658;2024-01-11T10:26:43;99620.63;;;11.27;45.78
74798;BME280;63326;45.088;7.658;2024-01-11T10:29:10;99601.63;;;11.13;46.08
74798;BME280;63326;45.088;7.658;2024-01-11T10:31:43;99549.88;;;10.62;46.60
74798;BME280;63326;45.088;7.658;2024-01-11T10:34:10;99533.94;;;10.68;46.54
74798;BME280;63326;45.088;7.658;2024-01-11T10:36:36;99522.19;;;10.77;45.95
74798;BME280;63326;45.088;7.658;2024-01-11T10:39:03;99604.47;;;11.44;45.79
74798;BME280;63326;45.088;7.658;2024-01-11T10:41:39;99598.13;;;11.28;46.17
74798;BME280;63326;45.088;7.658;2024-01-11T10:44:18;99561.84;;;11.00;47.46
74798;BME280;63326;45.088;7.658;2024-01-11T10:46:50;99571.31;;;11.59;45.94
74798;BME280;63326;45.088;7.658;2024-01-11T10:49:22;99551.56;;;11.28;45.87
74798;BME280;63326;45.088;7.658;2024-01-11T10:51:59;99553.19;;;11.45;45.51
74798;BME280;63326;45.088;7.658;2024-01-11T10:54:27;99574.69;;;11.53;44.10
74798;BME280;63326;45.088;7.658;2024-01-11T10:56:58;99538.53;;;11.56;44.31
74798;BME280;63326;45.088;7.658;2024-01-11T10:59:31;99531.06;;;11.27;45.15
74798;BME280;63326;45.088;7.658;2024-01-11T11:02:06;99513.75;;;11.21;44.75
74798;BME280;63326;45.088;7.658;2024-01-11T11:04:40;99574.13;;;11.66;44.81
74798;BME280;63326;45.088;7.658;2024-01-11T11:07:09;99570.97;;;11.54;44.96
74798;BME280;63326;45.088;7.658;2024-01-11T11:09:37;99568.06;;;11.00;44.85
74798;BME280;63326;45.088;7.658;2024-01-11T11:12:05;99485.34;;;9.12;48.33
74798;BME280;63326;45.088;7.658;2024-01-11T11:14:34;99515.53;;;9.48;48.85
74798;BME280;63326;45.088;7.658;2024-01-11T11:17:02;99450.34;;;9.48;48.04
74798;BME280;63326;45.088;7.658;2024-01-11T11:19:29;99506.84;;;9.96;47.15
74798;BME280;63326;45.088;7.658;2024-01-11T11:21:56;99437.50;;;9.67;47.63
74798;BME280;63326;45.088;7.658;2024-01-11T11:24:25;99484.00;;;9.84;48.39
74798;BME280;63326;45.088;7.658;2024-01-11T11:26:53;99468.72;;;9.77;48.06
74798;BME280;63326;45.088;7.658;2024-01-11T11:29:23;99426.06;;;9.49;48.96
74798;BME280;63326;45.088;7.658;2024-01-11T11:31:50;99487.97;;;9.72;48.52
74798;BME280;63326;45.088;7.658;2024-01-11T11:34:20;99468.97;;;9.49;48.96
74798;BME280;63326;45.088;7.658;2024-01-11T11:36:47;99499.97;;;9.52;49.44
74798;BME280;63326;45.088;7.658;2024-01-11T11:39:16;99441.44;;;8.79;49.82
74798;BME280;63326;45.088;7.658;2024-01-11T11:41:47;99431.09;;;8.32;50.69
74798;BME280;63326;45.088;7.658;2024-01-11T11:44:16;99418.63;;;8.05;51.88
74798;BME280;63326;45.088;7.658;2024-01-11T11:46:43;99426.91;;;7.94;51.40
74798;BME280;63326;45.088;7.658;2024-01-11T11:49:12;99470.13;;;7.44;54.20
74798;BME280;63326;45.088;7.658;2024-01-11T11:51:40;99510.34;;;7.52;56.30
74798;BME280;63326;45.088;7.658;2024-01-11T11:54:09;99424.69;;;7.17;55.45
74798;BME280;63326;45.088;7.658;2024-01-11T11:56:36;99441.25;;;6.83;56.01
74798;BME280;63326;45.088;7.658;2024-01-11T11:59:04;99433.44;;;7.09;55.51
74798;BME280;63326;45.088;7.658;2024-01-11T12:01:32;99461.84;;;6.44;57.69
74798;BME280;63326;45.088;7.658;2024-01-11T12:03:59;99490.94;;;6.18;60.72
74798;BME280;63326;45.088;7.658;2024-01-11T12:06:28;99431.25;;;5.51;62.39
74798;BME280;63326;45.088;7.658;2024-01-11T12:08:56;99398.47;;;5.99;61.59
74798;BME280;63326;45.088;7.658;2024-01-11T12:11:25;99444.28;;;6.61;59.60
74798;BME280;63326;45.088;7.658;2024-01-11T12:13:52;99497.22;;;7.22;60.13
74798;BME280;63326;45.088;7.658;2024-01-11T12:16:20;99464.00;;;7.24;58.86
74798;BME280;63326;45.088;7.658;2024-01-11T12:18:49;99435.19;;;6.91;57.93
74798;BME280;63326;45.088;7.658;2024-01-11T12:21:16;99488.91;;;7.25;58.45
74798;BME280;63326;45.088;7.658;2024-01-11T12:23:43;99404.44;;;6.40;58.88
74798;BME280;63326;45.088;7.658;2024-01-11T12:26:11;99446.00;;;6.99;58.11
74798;BME280;63326;45.088;7.658;2024-01-11T12:28:41;99472.03;;;7.24;60.09
74798;BME280;63326;45.088;7.658;2024-01-11T12:31:09;99465.00;;;7.23;59.05
74798;BME280;63326;45.088;7.658;2024-01-11T12:33:36;99468.50;;;7.24;59.87
74798;BME280;63326;45.088;7.658;2024-01-11T12:36:06;99448.44;;;7.20;59.78
74798;BME280;63326;45.088;7.658;2024-01-11T12:38:35;99414.97;;;6.88;58.48
74798;BME280;63326;45.088;7.658;2024-01-11T12:41:03;99408.63;;;6.99;58.56
74798;BME280;63326;45.088;7.658;2024-01-11T12:43:31;99376.28;;;6.65;59.18
74798;BME280;63326;45.088;7.658;2024-01-11T12:45:58;99374.66;;;6.82;60.21
74798;BME280;63326;45.088;7.658;2024-01-11T12:48:31;99308.91;;;6.53;59.94
74798;BME280;63326;45.088;7.658;2024-01-11T12:50:58;99329.91;;;6.66;58.85
74798;BME280;63326;45.088;7.658;2024-01-11T12:53:46;99322.06;;;6.64;58.30
74798;BME280;63326;45.088;7.658;2024-01-11T12:56:15;99366.09;;;6.88;59.40
74798;BME280;63326;45.088;7.658;2024-01-11T12:58:42;99303.34;;;6.46;59.32
74798;BME280;63326;45.088;7.658;2024-01-11T13:01:09;99253.72;;;6.26;59.18
74798;BME280;63326;45.088;7.658;2024-01-11T13:03:39;99303.19;;;6.48;59.73
74798;BME280;63326;45.088;7.658;2024-01-11T13:06:06;99303.59;;;6.43;60.69
74798;BME280;63326;45.088;7.658;2024-01-11T13:08:34;99328.34;;;6.73;59.97